createdAt,value
2023-01-08T00:01:19.582Z,107.40
2023-01-08T00:03:47.234Z,140.32
2023-01-08T00:06:18.496Z,147.27
2023-01-08T00:08:46.327Z,127.50
2023-01-08T00:11:14.060Z,121.00
2023-01-08T00:13:43.384Z,124.95
2023-01-08T00:16:15.153Z,114.75
2023-01-08T00:18:43.737Z,120.32
2023-01-08T00:21:11.776Z,124.63
2023-01-08T00:23:39.558Z,106.25
2023-01-08T00:26:09.645Z,144.93
2023-01-08T00:28:37.437Z,142.50
2023-01-08T00:31:06.654Z,101.22
2023-01-08T00:33:36.197Z,123.90
2023-01-08T00:36:12.953Z,123.95
2023-01-08T00:38:40.282Z,100.95
2023-01-08T00:41:09.763Z,96.82
2023-01-08T00:43:37.327Z,108.75
2023-01-08T00:46:05.575Z,136.90
2023-01-08T00:48:37.555Z,152.88
2023-01-08T00:51:07.794Z,163.68
2023-01-08T00:53:35.210Z,145.00
2023-01-08T00:56:08.839Z,126.13
2023-01-08T00:58:36.723Z,114.28
2023-01-08T01:01:13.168Z,110.30
2023-01-08T01:03:41.841Z,103.50
2023-01-08T01:06:11.109Z,87.07
2023-01-08T01:08:38.614Z,102.18
2023-01-08T01:11:23.664Z,97.38
2023-01-08T01:13:52.466Z,81.97
2023-01-08T01:16:20.060Z,115.32
2023-01-08T01:18:48.187Z,88.95
2023-01-08T01:21:28.295Z,79.55
2023-01-08T01:24:02.337Z,65.13
2023-01-08T01:26:30.543Z,63.75
2023-01-08T01:28:59.819Z,105.00
2023-01-08T01:31:29.712Z,122.13
2023-01-08T01:33:57.228Z,114.80
2023-01-08T01:36:26.589Z,111.05
2023-01-08T01:38:56.584Z,89.22
2023-01-08T01:41:39.519Z,88.60
2023-01-08T01:44:34.683Z,83.20
2023-01-08T01:47:26.937Z,85.68
2023-01-08T01:50:00.163Z,105.22
2023-01-08T01:52:30.315Z,122.25
2023-01-08T01:54:59.248Z,59.35
2023-01-08T01:57:26.828Z,58.15
2023-01-08T01:59:56.639Z,59.30
2023-01-08T02:02:24.054Z,97.63
2023-01-08T02:04:52.249Z,120.15
2023-01-08T02:07:50.848Z,82.85
2023-01-08T02:10:32.203Z,68.00
2023-01-08T02:13:14.900Z,47.17
2023-01-08T02:15:55.828Z,65.57
2023-01-08T02:21:31.160Z,69.97
2023-01-08T02:26:25.798Z,56.53
2023-01-08T02:28:57.209Z,46.47
2023-01-08T02:31:27.166Z,45.35
2023-01-08T02:33:55.491Z,56.03
2023-01-08T02:36:30.645Z,53.97
2023-01-08T02:39:02.271Z,53.47
2023-01-08T02:41:49.910Z,54.50
2023-01-08T02:44:26.407Z,55.40
2023-01-08T02:46:56.343Z,63.20
2023-01-08T02:49:30.405Z,61.17
2023-01-08T02:52:01.007Z,58.15
2023-01-08T02:54:32.642Z,45.78
2023-01-08T02:57:12.694Z,50.75
2023-01-08T02:59:43.224Z,50.15
2023-01-08T03:02:12.335Z,52.85
2023-01-08T03:04:51.301Z,60.92
2023-01-08T03:07:18.660Z,44.38
2023-01-08T03:09:48.216Z,54.50
2023-01-08T03:12:27.770Z,59.20
2023-01-08T03:15:06.418Z,67.10
2023-01-08T03:17:43.561Z,49.53
2023-01-08T03:20:18.422Z,72.97
2023-01-08T03:22:51.233Z,57.63
2023-01-08T03:25:21.431Z,55.55
2023-01-08T03:27:55.031Z,42.50
2023-01-08T03:30:30.858Z,61.15
2023-01-08T03:33:01.448Z,68.15
2023-01-08T03:35:31.833Z,51.72
2023-01-08T03:38:08.885Z,56.42
2023-01-08T03:40:41.122Z,43.90
2023-01-08T03:43:08.794Z,63.60
2023-01-08T03:45:43.901Z,70.63
2023-01-08T03:48:12.566Z,64.07
2023-01-08T03:50:40.831Z,67.70
2023-01-08T03:53:10.286Z,50.58
2023-01-08T03:55:38.750Z,61.03
2023-01-08T03:58:05.972Z,69.32
2023-01-08T04:00:36.879Z,79.28
2023-01-08T04:03:06.216Z,78.25
2023-01-08T04:05:33.905Z,75.70
2023-01-08T04:08:02.396Z,83.03
2023-01-08T04:10:29.759Z,76.90
2023-01-08T04:13:04.564Z,84.38
2023-01-08T04:15:36.863Z,83.93
2023-01-08T04:18:06.643Z,73.93
2023-01-08T04:20:34.608Z,80.93
2023-01-08T04:23:02.300Z,75.32
2023-01-08T04:25:29.661Z,81.32
2023-01-08T04:27:57.199Z,77.60
2023-01-08T04:30:31.251Z,73.82
2023-01-08T04:32:59.221Z,68.22
2023-01-08T04:35:26.566Z,83.15
2023-01-08T04:37:54.694Z,80.70
2023-01-08T04:40:22.958Z,70.45
2023-01-08T04:42:50.921Z,60.30
2023-01-08T04:45:25.681Z,59.90
2023-01-08T04:47:59.384Z,73.78
2023-01-08T04:50:27.324Z,57.50
2023-01-08T04:52:54.721Z,68.25
2023-01-08T04:55:22.547Z,265.13
2023-01-08T04:57:50.251Z,144.88
2023-01-08T05:00:21.897Z,100.85
2023-01-08T05:02:51.907Z,80.80
2023-01-08T05:05:19.312Z,78.90
2023-01-08T05:07:47.350Z,63.95
2023-01-08T05:10:14.742Z,68.10
2023-01-08T05:12:42.949Z,49.78
2023-01-08T05:15:10.671Z,54.20
2023-01-08T05:17:38.724Z,62.55
2023-01-08T05:20:08.654Z,62.40
2023-01-08T05:22:36.330Z,55.90
2023-01-08T05:25:06.505Z,66.65
2023-01-08T05:27:33.894Z,61.00
2023-01-08T05:30:01.492Z,66.18
2023-01-08T05:32:28.807Z,59.97
2023-01-08T05:34:56.315Z,56.00
2023-01-08T05:37:24.561Z,67.78
2023-01-08T05:39:51.816Z,65.70
2023-01-08T05:42:19.226Z,66.43
2023-01-08T05:44:46.611Z,82.07
2023-01-08T05:47:14.020Z,227.75
2023-01-08T05:49:41.617Z,114.03
2023-01-08T05:52:08.935Z,105.05
2023-01-08T05:54:36.222Z,69.07
2023-01-08T05:57:04.937Z,56.78
2023-01-08T05:59:32.189Z,47.72
2023-01-08T06:02:00.385Z,65.20
2023-01-08T06:04:27.771Z,58.55
2023-01-08T06:06:55.442Z,48.22
2023-01-08T06:09:23.163Z,47.13
2023-01-08T06:11:53.149Z,61.67
2023-01-08T06:14:20.412Z,75.40
2023-01-08T06:16:47.688Z,101.53
2023-01-08T06:19:15.047Z,84.90
2023-01-08T06:21:43.072Z,89.25
2023-01-08T06:24:10.482Z,65.72
2023-01-08T06:26:38.091Z,66.13
2023-01-08T06:29:06.038Z,75.85
2023-01-08T06:31:33.832Z,99.03
2023-01-08T06:34:01.373Z,83.15
2023-01-08T06:36:29.158Z,63.83
2023-01-08T06:38:56.558Z,96.07
2023-01-08T06:41:25.036Z,109.15
2023-01-08T06:43:52.335Z,89.18
2023-01-08T06:46:20.390Z,79.45
2023-01-08T06:48:48.159Z,62.75
2023-01-08T06:51:16.149Z,62.00
2023-01-08T06:53:44.496Z,52.97
2023-01-08T06:56:12.039Z,51.60
2023-01-08T06:58:39.821Z,60.75
2023-01-08T07:01:07.840Z,62.50
2023-01-08T07:03:35.202Z,97.25
2023-01-08T07:06:03.955Z,66.20
2023-01-08T07:08:32.015Z,69.72
2023-01-08T07:11:06.371Z,70.25
2023-01-08T07:13:33.680Z,89.93
2023-01-08T07:16:12.756Z,83.40
2023-01-08T07:18:40.721Z,76.63
2023-01-08T07:21:08.738Z,87.40
2023-01-08T07:23:42.136Z,95.03
2023-01-08T07:26:09.926Z,73.05
2023-01-08T07:28:37.771Z,81.60
2023-01-08T07:31:10.730Z,73.97
2023-01-08T07:33:38.319Z,72.85
2023-01-08T07:36:09.229Z,73.15
2023-01-08T07:38:36.694Z,67.00
2023-01-08T07:41:05.165Z,86.00
2023-01-08T07:43:33.571Z,70.18
2023-01-08T07:46:04.581Z,65.43
2023-01-08T07:48:32.724Z,81.55
2023-01-08T07:51:06.125Z,78.70
2023-01-08T07:53:34.105Z,73.60
2023-01-08T07:56:07.419Z,147.85
2023-01-08T07:58:35.707Z,207.07
2023-01-08T08:01:08.411Z,108.72
2023-01-08T08:03:35.887Z,70.30
2023-01-08T08:06:03.517Z,64.47
2023-01-08T08:08:30.907Z,59.22
2023-01-08T08:10:58.120Z,69.85
2023-01-08T08:13:26.954Z,90.80
2023-01-08T08:15:54.418Z,85.13
2023-01-08T08:18:23.132Z,78.25
2023-01-08T08:20:52.296Z,84.75
2023-01-08T08:23:19.573Z,99.28
2023-01-08T08:25:47.007Z,108.65
2023-01-08T08:28:14.426Z,97.20
2023-01-08T08:30:45.468Z,105.20
2023-01-08T08:33:13.108Z,118.10
2023-01-08T08:35:41.329Z,104.68
2023-01-08T08:38:08.843Z,137.35
2023-01-08T08:40:36.995Z,168.95
2023-01-08T08:43:05.807Z,92.50
2023-01-08T08:45:36.093Z,80.50
2023-01-08T08:48:07.318Z,80.72
2023-01-08T08:50:35.701Z,97.95
2023-01-08T08:53:05.914Z,72.07
2023-01-08T08:55:34.216Z,80.40
2023-01-08T08:58:08.194Z,97.38
2023-01-08T09:00:38.076Z,117.55
2023-01-08T09:03:07.030Z,108.00
2023-01-08T09:05:37.583Z,139.60
2023-01-08T09:08:05.372Z,175.15
2023-01-08T09:10:32.753Z,140.65
2023-01-08T09:13:00.361Z,197.13
2023-01-08T09:15:30.411Z,156.52
2023-01-08T09:20:27.812Z,120.53
2023-01-08T09:22:55.209Z,159.57
2023-01-08T09:25:23.271Z,242.57
2023-01-08T09:28:02.574Z,194.15
2023-01-08T09:30:33.710Z,124.53
2023-01-08T09:33:04.166Z,117.15
2023-01-08T09:35:33.416Z,122.85
2023-01-08T09:38:01.639Z,93.50
2023-01-08T09:40:43.671Z,107.07
2023-01-08T09:43:18.284Z,91.05
2023-01-08T09:45:51.440Z,104.22
2023-01-08T09:48:24.599Z,120.35
2023-01-08T09:50:53.007Z,116.00
2023-01-08T09:53:20.757Z,120.47
2023-01-08T09:56:09.294Z,126.38
2023-01-08T09:58:45.540Z,131.55
2023-01-08T10:01:24.547Z,105.18
2023-01-08T10:04:19.080Z,92.20
2023-01-08T10:07:11.614Z,98.25
2023-01-08T10:09:40.450Z,112.80
2023-01-08T10:12:12.319Z,107.00
2023-01-08T10:14:48.216Z,100.95
2023-01-08T10:17:38.012Z,109.03
2023-01-08T10:20:24.712Z,120.40
2023-01-08T10:22:57.293Z,119.75
2023-01-08T10:25:28.185Z,114.15
2023-01-08T10:28:00.536Z,102.78
2023-01-08T10:30:34.067Z,107.53
2023-01-08T10:33:13.648Z,108.88
2023-01-08T10:35:42.655Z,100.67
2023-01-08T10:38:43.581Z,89.30
2023-01-08T10:41:14.015Z,85.38
2023-01-08T10:43:56.300Z,99.55
2023-01-08T10:46:29.098Z,92.30
2023-01-08T10:49:00.678Z,101.75
2023-01-08T10:51:32.777Z,89.68
2023-01-08T10:54:13.490Z,86.97
2023-01-08T10:56:45.602Z,71.90
2023-01-08T10:59:20.788Z,78.35
2023-01-08T11:01:51.061Z,79.10
2023-01-08T11:07:08.043Z,149.75
2023-01-08T11:09:47.938Z,82.68
2023-01-08T11:12:27.352Z,74.35
2023-01-08T11:14:54.935Z,58.72
2023-01-08T11:17:26.827Z,55.75
2023-01-08T11:19:55.887Z,61.55
2023-01-08T11:22:25.766Z,78.00
2023-01-08T11:24:55.117Z,95.68
2023-01-08T11:27:25.768Z,54.45
2023-01-08T11:30:24.748Z,42.55
2023-01-08T11:33:10.265Z,67.90
2023-01-08T11:35:42.723Z,79.88
2023-01-08T11:38:13.135Z,51.60
2023-01-08T11:41:27.934Z,45.15
2023-01-08T11:44:07.382Z,51.42
2023-01-08T11:46:46.887Z,54.13
2023-01-08T11:49:46.066Z,50.47
2023-01-08T11:52:45.796Z,57.97
2023-01-08T11:55:35.000Z,55.13
2023-01-08T11:58:26.184Z,69.00
2023-01-08T12:01:06.428Z,67.05
2023-01-08T12:03:46.787Z,79.32
2023-01-08T12:06:28.831Z,70.47
2023-01-08T12:09:22.081Z,68.75
2023-01-08T12:12:02.322Z,72.68
2023-01-08T12:15:02.819Z,77.05
2023-01-08T12:17:43.484Z,378.63
2023-01-08T12:20:32.715Z,698.63
2023-01-08T12:23:30.557Z,264.25
2023-01-08T12:26:16.178Z,176.02
2023-01-08T12:29:02.742Z,293.88
2023-01-08T12:31:35.960Z,259.83
2023-01-08T12:34:30.527Z,262.15
2023-01-08T12:37:10.238Z,209.75
2023-01-08T12:40:07.888Z,190.75
2023-01-08T12:42:46.729Z,189.75
2023-01-08T12:45:28.963Z,299.48
2023-01-08T12:48:09.607Z,317.60
2023-01-08T12:51:18.388Z,302.58
2023-01-08T12:53:58.222Z,215.95
2023-01-08T12:56:33.718Z,234.88
2023-01-08T12:59:41.857Z,182.60
2023-01-08T13:02:37.613Z,123.82
2023-01-08T13:05:20.603Z,101.05
2023-01-08T13:07:57.669Z,117.88
2023-01-08T13:10:41.850Z,109.22
2023-01-08T13:13:50.783Z,121.10
2023-01-08T13:16:24.610Z,108.10
2023-01-08T13:18:59.279Z,119.50
2023-01-08T13:21:39.325Z,110.60
2023-01-08T13:24:29.049Z,130.18
2023-01-08T13:26:57.703Z,131.98
2023-01-08T13:29:37.458Z,169.15
2023-01-08T13:32:23.444Z,99.28
2023-01-08T13:35:03.042Z,130.35
2023-01-08T13:37:31.942Z,82.78
2023-01-08T13:39:59.263Z,77.60
2023-01-08T13:42:32.085Z,91.75
2023-01-08T13:45:06.114Z,67.03
2023-01-08T13:47:42.947Z,75.22
2023-01-08T13:50:24.307Z,62.78
2023-01-08T13:53:03.151Z,83.25
2023-01-08T13:55:40.280Z,76.18
2023-01-08T13:58:18.215Z,70.18
2023-01-08T14:00:48.315Z,64.97
2023-01-08T14:06:04.956Z,72.68
2023-01-08T14:08:33.772Z,76.45
2023-01-08T14:11:03.791Z,74.32
2023-01-08T14:13:35.806Z,73.47
2023-01-08T14:16:05.912Z,88.13
2023-01-08T14:18:33.586Z,75.57
2023-01-08T14:21:00.982Z,66.10
2023-01-08T14:23:37.155Z,83.03
2023-01-08T14:26:11.491Z,74.82
2023-01-08T14:28:39.184Z,79.60
2023-01-08T14:31:22.384Z,69.07
2023-01-08T14:34:00.354Z,72.43
2023-01-08T14:36:28.215Z,76.13
2023-01-08T14:38:55.754Z,71.60
2023-01-08T14:41:55.135Z,60.85
2023-01-08T14:44:36.277Z,72.60
2023-01-08T14:47:06.477Z,69.65
2023-01-08T14:49:43.358Z,63.55
2023-01-08T14:52:25.980Z,61.90
2023-01-08T14:55:00.015Z,62.88
2023-01-08T14:57:28.305Z,64.70
2023-01-08T14:59:58.857Z,66.07
2023-01-08T15:05:25.670Z,65.60
2023-01-08T15:08:00.401Z,101.20
2023-01-08T15:10:34.888Z,102.40
2023-01-08T15:13:04.947Z,87.75
2023-01-08T15:15:38.454Z,94.22
2023-01-08T15:18:09.359Z,82.53
2023-01-08T15:20:37.018Z,105.70
2023-01-08T15:23:04.673Z,102.32
2023-01-08T15:25:32.883Z,110.70
2023-01-08T15:28:04.699Z,101.30
2023-01-08T15:30:46.640Z,82.88
2023-01-08T15:33:26.639Z,90.78
2023-01-08T15:35:53.970Z,83.88
2023-01-08T15:38:33.658Z,125.88
2023-01-08T15:41:02.082Z,127.03
2023-01-08T15:43:30.528Z,187.27
2023-01-08T15:45:58.032Z,185.00
2023-01-08T15:48:25.884Z,206.98
2023-01-08T15:50:53.571Z,117.13
2023-01-08T15:53:24.713Z,99.47
2023-01-08T15:55:52.749Z,112.38
2023-01-08T15:58:20.880Z,131.20
2023-01-08T16:00:52.744Z,121.80
2023-01-08T16:03:25.572Z,125.85
2023-01-08T16:05:53.840Z,92.05
2023-01-08T16:08:21.059Z,87.35
2023-01-08T16:10:54.005Z,103.10
2023-01-08T16:13:21.347Z,380.70
2023-01-08T16:15:49.620Z,95.85
2023-01-08T16:18:16.867Z,83.03
2023-01-08T16:20:45.652Z,88.10
2023-01-08T16:23:13.368Z,79.22
2023-01-08T16:25:41.027Z,74.45
2023-01-08T16:28:09.145Z,75.57
2023-01-08T16:30:43.061Z,84.32
2023-01-08T16:33:17.469Z,95.50
2023-01-08T16:35:55.476Z,87.13
2023-01-08T16:38:25.123Z,99.05
2023-01-08T16:40:58.668Z,111.55
2023-01-08T16:43:29.837Z,145.45
2023-01-08T16:48:31.575Z,151.27
2023-01-08T16:51:05.731Z,152.75
2023-01-08T16:53:35.938Z,115.30
2023-01-08T16:56:05.370Z,99.10
2023-01-08T16:58:35.068Z,96.30
2023-01-08T17:01:08.928Z,107.22
2023-01-08T17:03:37.491Z,126.05
2023-01-08T17:06:07.294Z,109.60
2023-01-08T17:08:40.206Z,108.60
2023-01-08T17:11:11.462Z,104.43
2023-01-08T17:13:40.228Z,131.45
2023-01-08T17:16:10.529Z,106.13
2023-01-08T17:18:39.394Z,103.53
2023-01-08T17:21:10.022Z,102.93
2023-01-08T17:26:11.564Z,89.07
2023-01-08T17:28:39.529Z,81.90
2023-01-08T17:31:12.816Z,87.20
2023-01-08T17:33:40.368Z,105.32
2023-01-08T17:36:16.247Z,84.82
2023-01-08T17:38:43.837Z,69.18
2023-01-08T17:41:33.264Z,79.60
2023-01-08T17:44:06.986Z,121.03
2023-01-08T17:46:37.181Z,117.55
2023-01-08T17:49:04.925Z,122.32
2023-01-08T17:51:33.821Z,108.63
2023-01-08T17:54:01.880Z,72.78
2023-01-08T17:56:29.554Z,71.75
2023-01-08T17:58:57.475Z,75.95
2023-01-08T18:01:24.957Z,103.18
2023-01-08T18:03:53.412Z,113.22
2023-01-08T18:06:22.727Z,106.70
2023-01-08T18:08:50.301Z,85.28
2023-01-08T18:11:17.589Z,86.50
2023-01-08T18:13:45.043Z,330.80
2023-01-08T18:16:17.417Z,361.48
2023-01-08T18:18:45.070Z,302.50
2023-01-08T18:21:12.829Z,121.93
2023-01-08T18:23:41.264Z,87.13
2023-01-08T18:26:12.230Z,77.78
2023-01-08T18:28:40.029Z,84.22
2023-01-08T18:31:09.090Z,82.13
2023-01-08T18:33:38.831Z,245.20
2023-01-08T18:36:10.277Z,147.70
2023-01-08T18:38:39.734Z,105.32
2023-01-08T18:43:41.545Z,90.10
2023-01-08T18:46:14.331Z,70.78
2023-01-08T18:48:42.214Z,96.78
2023-01-08T18:51:12.535Z,73.03
2023-01-08T18:53:41.198Z,74.88
2023-01-08T18:56:15.200Z,105.40
2023-01-08T18:58:48.783Z,88.20
2023-01-08T19:01:17.874Z,87.05
2023-01-08T19:03:46.696Z,93.40
2023-01-08T19:06:16.570Z,108.40
2023-01-08T19:08:45.312Z,82.43
2023-01-08T19:11:13.656Z,62.30
2023-01-08T19:13:41.864Z,79.47
2023-01-08T19:16:12.670Z,88.20
2023-01-08T19:18:40.802Z,70.90
2023-01-08T19:21:10.333Z,58.08
2023-01-08T19:23:37.669Z,50.70
2023-01-08T19:26:09.278Z,53.80
2023-01-08T19:28:37.188Z,44.28
2023-01-08T19:31:05.202Z,33.75
2023-01-08T19:33:32.923Z,41.60
2023-01-08T19:36:09.082Z,32.63
2023-01-08T19:38:37.013Z,44.53
2023-01-08T19:41:04.645Z,47.53
2023-01-08T19:43:44.323Z,41.83
2023-01-08T19:46:15.583Z,55.20
2023-01-08T19:48:44.520Z,46.03
2023-01-08T19:51:15.845Z,54.42
2023-01-08T19:53:48.384Z,52.53
2023-01-08T19:56:21.382Z,80.50
2023-01-08T19:58:49.651Z,61.58
2023-01-08T20:01:28.472Z,58.33
2023-01-08T20:03:59.138Z,64.28
2023-01-08T20:06:31.422Z,53.67
2023-01-08T20:09:17.885Z,61.08
2023-01-08T20:11:50.600Z,67.60
2023-01-08T20:14:21.431Z,49.70
2023-01-08T20:17:19.737Z,90.88
2023-01-08T20:19:50.342Z,60.55
2023-01-08T20:22:32.584Z,53.05
2023-01-08T20:25:16.971Z,66.05
2023-01-08T20:27:48.717Z,54.38
2023-01-08T20:30:19.667Z,65.65
2023-01-08T20:32:51.766Z,70.25
2023-01-08T20:35:22.198Z,60.55
2023-01-08T20:37:50.040Z,64.13
2023-01-08T20:40:18.256Z,50.65
2023-01-08T20:42:47.052Z,41.13
2023-01-08T20:45:15.778Z,41.33
2023-01-08T20:47:43.113Z,50.25
2023-01-08T20:50:19.991Z,53.15
2023-01-08T20:52:50.123Z,69.15
2023-01-08T20:55:18.801Z,73.60
2023-01-08T20:57:47.676Z,114.60
2023-01-08T21:00:18.003Z,387.63
2023-01-08T21:02:51.538Z,178.77
2023-01-08T21:05:29.614Z,46.38
2023-01-08T21:07:59.122Z,56.05
2023-01-08T21:10:31.049Z,60.80
2023-01-08T21:13:08.221Z,88.60
2023-01-08T21:15:40.312Z,72.38
2023-01-08T21:18:09.251Z,114.78
2023-01-08T21:20:38.666Z,70.00
2023-01-08T21:23:13.568Z,103.05
2023-01-08T21:25:44.163Z,57.90
2023-01-08T21:28:14.317Z,76.07
2023-01-08T21:30:49.074Z,105.22
2023-01-08T21:33:20.186Z,71.20
2023-01-08T21:35:50.205Z,181.95
2023-01-08T21:38:41.914Z,109.97
2023-01-08T21:41:35.068Z,82.60
2023-01-08T21:44:24.098Z,179.43
2023-01-08T21:46:52.828Z,179.48
2023-01-08T21:49:20.747Z,134.82
2023-01-08T21:52:06.419Z,170.90
2023-01-08T21:54:34.344Z,92.90
2023-01-08T21:57:01.807Z,62.42
2023-01-08T21:59:29.517Z,58.53
2023-01-08T22:01:57.912Z,53.22
2023-01-08T22:04:25.334Z,47.40
2023-01-08T22:06:55.946Z,74.57
2023-01-08T22:09:23.335Z,111.03
2023-01-08T22:11:51.172Z,118.03
2023-01-08T22:14:19.134Z,86.18
2023-01-08T22:16:46.431Z,50.28
2023-01-08T22:19:14.299Z,155.93
2023-01-08T22:21:42.701Z,67.00
2023-01-08T22:24:10.607Z,57.10
2023-01-08T22:26:38.225Z,41.88
2023-01-08T22:29:06.711Z,52.38
2023-01-08T22:31:34.995Z,52.65
2023-01-08T22:34:02.860Z,48.72
2023-01-08T22:36:32.764Z,42.10
2023-01-08T22:39:00.331Z,41.78
2023-01-08T22:41:28.977Z,38.15
2023-01-08T22:43:57.321Z,37.22
2023-01-08T22:46:26.029Z,38.85
2023-01-08T22:48:54.363Z,38.60
2023-01-08T22:51:27.547Z,32.00
2023-01-08T22:53:56.202Z,40.78
2023-01-08T22:56:24.207Z,36.63
2023-01-08T22:58:52.946Z,31.10
2023-01-08T23:01:24.571Z,35.13
2023-01-08T23:03:54.782Z,29.40
2023-01-08T23:06:24.112Z,31.80
2023-01-08T23:08:52.713Z,37.63
2023-01-08T23:11:22.604Z,37.70
2023-01-08T23:13:52.348Z,49.00
2023-01-08T23:16:24.803Z,39.70
2023-01-08T23:18:55.606Z,30.58
2023-01-08T23:21:26.377Z,37.30
2023-01-08T23:23:54.312Z,35.80
2023-01-08T23:26:28.875Z,29.58
2023-01-08T23:28:57.661Z,35.28
2023-01-08T23:31:30.262Z,37.88
2023-01-08T23:33:58.740Z,32.95
2023-01-08T23:36:27.351Z,34.33
2023-01-08T23:38:56.361Z,29.42
2023-01-08T23:41:35.230Z,33.15
2023-01-08T23:44:06.352Z,33.92
2023-01-08T23:46:34.786Z,47.70
2023-01-08T23:49:04.306Z,209.13
2023-01-08T23:51:32.983Z,48.75
2023-01-08T23:54:01.098Z,69.97
2023-01-08T23:56:28.714Z,40.10
2023-01-08T23:58:57.932Z,36.38
